sensor_id;sensor_type;location;lat;lon;timestamp;pressure;altitude;pressure_sealevel;temperature;humidity
75617;BME280;64200;55.426;37.758;2023-07-24T00:01:25;98679.72;;;15.89;68.87
75617;BME280;64200;55.426;37.758;2023-07-24T00:06:26;98679.25;;;15.85;68.55
75617;BME280;64200;55.426;37.758;2023-07-24T00:11:26;98686.28;;;15.67;69.38
75617;BME280;64200;55.426;37.758;2023-07-24T00:16:27;98680.84;;;15.44;69.95
75617;BME280;64200;55.426;37.758;2023-07-24T00:21:27;98680.47;;;15.28;70.51
75617;BME280;64200;55.426;37.758;2023-07-24T00:26:28;98690.16;;;15.27;70.79
75617;BME280;64200;55.426;37.758;2023-07-24T00:31:28;98681.44;;;15.37;70.26
75617;BME280;64200;55.426;37.758;2023-07-24T00:36:29;98677.00;;;15.47;70.05
75617;BME280;64200;55.426;37.758;2023-07-24T00:41:30;98684.38;;;15.50;70.01
75617;BME280;64200;55.426;37.758;2023-07-24T00:46:30;98676.94;;;15.53;69.80
75617;BME280;64200;55.426;37.758;2023-07-24T00:51:33;98673.06;;;15.56;69.76
75617;BME280;64200;55.426;37.758;2023-07-24T00:56:34;98662.19;;;15.46;69.71
75617;BME280;64200;55.426;37.758;2023-07-24T01:01:35;98661.25;;;15.38;69.74
75617;BME280;64200;55.426;37.758;2023-07-24T01:06:37;98655.72;;;15.27;69.81
75617;BME280;64200;55.426;37.758;2023-07-24T01:11:50;98665.22;;;15.18;70.35
75617;BME280;64200;55.426;37.758;2023-07-24T01:16:54;98654.34;;;15.03;70.71
75617;BME280;64200;55.426;37.758;2023-07-24T01:22:14;98662.75;;;15.09;70.70
75617;BME280;64200;55.426;37.758;2023-07-24T01:27:20;98652.34;;;14.98;70.93
75617;BME280;64200;55.426;37.758;2023-07-24T01:32:24;98661.53;;;14.99;71.22
75617;BME280;64200;55.426;37.758;2023-07-24T01:37:25;98674.00;;;15.03;71.00
75617;BME280;64200;55.426;37.758;2023-07-24T01:42:26;98672.28;;;14.95;70.95
75617;BME280;64200;55.426;37.758;2023-07-24T01:47:27;98670.53;;;14.91;71.18
75617;BME280;64200;55.426;37.758;2023-07-24T01:52:28;98661.56;;;14.93;71.08
75617;BME280;64200;55.426;37.758;2023-07-24T01:57:28;98657.72;;;14.96;70.78
75617;BME280;64200;55.426;37.758;2023-07-24T02:02:29;98659.31;;;14.86;71.52
75617;BME280;64200;55.426;37.758;2023-07-24T02:07:29;98659.59;;;14.82;71.30
75617;BME280;64200;55.426;37.758;2023-07-24T02:12:30;98660.56;;;14.90;71.16
75617;BME280;64200;55.426;37.758;2023-07-24T02:17:30;98662.81;;;14.98;70.66
75617;BME280;64200;55.426;37.758;2023-07-24T02:22:31;98660.97;;;15.06;70.41
75617;BME280;64200;55.426;37.758;2023-07-24T02:27:32;98669.06;;;15.15;70.24
75617;BME280;64200;55.426;37.758;2023-07-24T02:32:34;98671.13;;;15.15;70.37
75617;BME280;64200;55.426;37.758;2023-07-24T02:37:35;98670.16;;;15.06;70.40
75617;BME280;64200;55.426;37.758;2023-07-24T02:42:35;98659.31;;;14.86;70.74
75617;BME280;64200;55.426;37.758;2023-07-24T02:47:36;98671.72;;;15.02;70.77
75617;BME280;64200;55.426;37.758;2023-07-24T02:52:36;98674.03;;;14.98;70.78
75617;BME280;64200;55.426;37.758;2023-07-24T02:57:37;98670.50;;;14.97;70.54
75617;BME280;64200;55.426;37.758;2023-07-24T03:02:38;98685.25;;;15.03;70.52
75617;BME280;64200;55.426;37.758;2023-07-24T03:07:39;98685.91;;;15.21;70.14
75617;BME280;64200;55.426;37.758;2023-07-24T03:12:40;98686.09;;;15.28;69.86
75617;BME280;64200;55.426;37.758;2023-07-24T03:17:40;98675.75;;;15.42;69.74
75617;BME280;64200;55.426;37.758;2023-07-24T03:22:42;98667.53;;;15.50;69.05
75617;BME280;64200;55.426;37.758;2023-07-24T03:27:42;98678.78;;;15.75;69.26
75617;BME280;64200;55.426;37.758;2023-07-24T03:32:43;98672.41;;;15.74;68.52
75617;BME280;64200;55.426;37.758;2023-07-24T03:37:43;98671.69;;;15.68;68.76
75617;BME280;64200;55.426;37.758;2023-07-24T03:42:44;98674.00;;;15.70;68.66
75617;BME280;64200;55.426;37.758;2023-07-24T03:47:44;98682.38;;;15.75;68.72
75617;BME280;64200;55.426;37.758;2023-07-24T03:52:45;98680.09;;;15.74;68.65
75617;BME280;64200;55.426;37.758;2023-07-24T03:57:45;98682.88;;;16.04;68.66
75617;BME280;64200;55.426;37.758;2023-07-24T04:02:46;98683.13;;;16.25;68.13
75617;BME280;64200;55.426;37.758;2023-07-24T04:07:47;98686.06;;;16.58;67.44
75617;BME280;64200;55.426;37.758;2023-07-24T04:12:48;98687.59;;;16.59;66.46
75617;BME280;64200;55.426;37.758;2023-07-24T04:17:48;98697.59;;;16.79;66.32
75617;BME280;64200;55.426;37.758;2023-07-24T04:22:49;98693.63;;;17.07;66.23
75617;BME280;64200;55.426;37.758;2023-07-24T04:27:49;98693.25;;;17.16;64.76
75617;BME280;64200;55.426;37.758;2023-07-24T04:32:50;98686.97;;;17.23;64.16
75617;BME280;64200;55.426;37.758;2023-07-24T04:37:51;98679.44;;;17.45;63.70
75617;BME280;64200;55.426;37.758;2023-07-24T04:42:51;98683.75;;;17.78;62.40
75617;BME280;64200;55.426;37.758;2023-07-24T04:47:52;98686.00;;;18.25;61.48
75617;BME280;64200;55.426;37.758;2023-07-24T04:52:52;98675.16;;;18.77;58.32
75617;BME280;64200;55.426;37.758;2023-07-24T04:57:53;98673.06;;;18.91;58.01
75617;BME280;64200;55.426;37.758;2023-07-24T05:02:53;98666.38;;;19.02;56.28
75617;BME280;64200;55.426;37.758;2023-07-24T05:07:54;98665.66;;;19.23;56.04
75617;BME280;64200;55.426;37.758;2023-07-24T05:12:54;98674.56;;;19.27;56.23
75617;BME280;64200;55.426;37.758;2023-07-24T05:17:56;98677.13;;;19.38;55.61
75617;BME280;64200;55.426;37.758;2023-07-24T05:22:57;98669.28;;;19.73;55.75
75617;BME280;64200;55.426;37.758;2023-07-24T05:27:57;98665.13;;;19.95;54.08
75617;BME280;64200;55.426;37.758;2023-07-24T05:32:58;98655.97;;;20.10;53.31
75617;BME280;64200;55.426;37.758;2023-07-24T05:37:58;98656.97;;;20.21;53.51
75617;BME280;64200;55.426;37.758;2023-07-24T05:42:59;98669.25;;;20.23;51.97
75617;BME280;64200;55.426;37.758;2023-07-24T05:47:59;98666.84;;;20.27;51.18
75617;BME280;64200;55.426;37.758;2023-07-24T05:53:00;98670.81;;;20.68;49.60
75617;BME280;64200;55.426;37.758;2023-07-24T05:58:00;98658.97;;;20.85;49.66
75617;BME280;64200;55.426;37.758;2023-07-24T06:03:02;98665.09;;;21.28;49.51
75617;BME280;64200;55.426;37.758;2023-07-24T06:08:02;98670.63;;;21.80;49.00
75617;BME280;64200;55.426;37.758;2023-07-24T06:13:03;98665.66;;;22.11;47.94
75617;BME280;64200;55.426;37.758;2023-07-24T06:18:04;98663.00;;;22.14;46.22
75617;BME280;64200;55.426;37.758;2023-07-24T06:23:04;98666.56;;;22.37;46.69
75617;BME280;64200;55.426;37.758;2023-07-24T06:28:05;98665.03;;;22.28;43.71
75617;BME280;64200;55.426;37.758;2023-07-24T06:33:05;98661.09;;;22.24;42.72
75617;BME280;64200;55.426;37.758;2023-07-24T06:38:06;98677.53;;;22.89;42.43
75617;BME280;64200;55.426;37.758;2023-07-24T06:43:08;98669.59;;;23.21;41.14
75617;BME280;64200;55.426;37.758;2023-07-24T06:48:09;98667.44;;;22.96;41.26
75617;BME280;64200;55.426;37.758;2023-07-24T06:53:09;98671.19;;;22.66;41.35
75617;BME280;64200;55.426;37.758;2023-07-24T06:58:10;98663.00;;;22.14;42.42
75617;BME280;64200;55.426;37.758;2023-07-24T07:03:10;98665.63;;;22.35;42.32
75617;BME280;64200;55.426;37.758;2023-07-24T07:08:11;98659.00;;;22.40;41.89
75617;BME280;64200;55.426;37.758;2023-07-24T07:13:11;98640.22;;;22.29;41.43
75617;BME280;64200;55.426;37.758;2023-07-24T07:18:12;98653.94;;;22.63;42.01
75617;BME280;64200;55.426;37.758;2023-07-24T07:23:12;98662.63;;;23.06;41.72
75617;BME280;64200;55.426;37.758;2023-07-24T07:28:14;98662.00;;;22.83;41.50
75617;BME280;64200;55.426;37.758;2023-07-24T07:33:15;98660.53;;;22.74;41.77
75617;BME280;64200;55.426;37.758;2023-07-24T07:38:16;98664.09;;;22.34;42.42
75617;BME280;64200;55.426;37.758;2023-07-24T07:43:17;98652.94;;;22.20;43.24
75617;BME280;64200;55.426;37.758;2023-07-24T07:48:17;98650.16;;;22.05;42.57
75617;BME280;64200;55.426;37.758;2023-07-24T07:53:18;98648.28;;;21.84;43.70
75617;BME280;64200;55.426;37.758;2023-07-24T07:58:18;98649.19;;;22.18;43.74
75617;BME280;64200;55.426;37.758;2023-07-24T08:03:19;98653.72;;;22.21;43.32
75617;BME280;64200;55.426;37.758;2023-07-24T08:08:19;98655.09;;;21.89;44.50
75617;BME280;64200;55.426;37.758;2023-07-24T08:13:20;98658.28;;;21.16;45.46
75617;BME280;64200;55.426;37.758;2023-07-24T08:18:21;98653.34;;;21.09;46.06
75617;BME280;64200;55.426;37.758;2023-07-24T08:23:21;98644.28;;;21.02;46.53
75617;BME280;64200;55.426;37.758;2023-07-24T08:28:22;98643.53;;;21.17;46.19
75617;BME280;64200;55.426;37.758;2023-07-24T08:33:22;98628.94;;;20.90;47.65
75617;BME280;64200;55.426;37.758;2023-07-24T08:38:23;98652.75;;;20.95;48.38
75617;BME280;64200;55.426;37.758;2023-07-24T08:43:24;98647.50;;;21.14;49.43
75617;BME280;64200;55.426;37.758;2023-07-24T08:48:28;98642.56;;;20.99;49.58
75617;BME280;64200;55.426;37.758;2023-07-24T08:53:29;98655.28;;;20.62;51.33
75617;BME280;64200;55.426;37.758;2023-07-24T08:58:31;98643.34;;;20.56;52.33
75617;BME280;64200;55.426;37.758;2023-07-24T09:03:32;98648.84;;;20.61;52.73
75617;BME280;64200;55.426;37.758;2023-07-24T09:08:39;98653.28;;;20.85;52.58
75617;BME280;64200;55.426;37.758;2023-07-24T09:13:44;98655.13;;;20.67;53.24
75617;BME280;64200;55.426;37.758;2023-07-24T09:18:44;98649.03;;;20.19;54.04
75617;BME280;64200;55.426;37.758;2023-07-24T09:23:45;98651.63;;;19.80;56.11
75617;BME280;64200;55.426;37.758;2023-07-24T09:28:52;98650.47;;;20.05;55.11
75617;BME280;64200;55.426;37.758;2023-07-24T09:33:53;98648.53;;;19.49;56.89
75617;BME280;64200;55.426;37.758;2023-07-24T09:39:00;98638.41;;;19.12;57.45
75617;BME280;64200;55.426;37.758;2023-07-24T09:44:00;98649.41;;;19.37;57.67
75617;BME280;64200;55.426;37.758;2023-07-24T09:49:01;98623.13;;;19.07;58.60
75617;BME280;64200;55.426;37.758;2023-07-24T09:59:09;98616.06;;;19.43;58.54
75617;BME280;64200;55.426;37.758;2023-07-24T10:04:11;98604.59;;;18.85;60.18
75617;BME280;64200;55.426;37.758;2023-07-24T10:09:13;98597.25;;;19.03;60.12
75617;BME280;64200;55.426;37.758;2023-07-24T10:14:14;98593.81;;;19.18;59.76
75617;BME280;64200;55.426;37.758;2023-07-24T10:19:15;98579.34;;;19.22;60.30
75617;BME280;64200;55.426;37.758;2023-07-24T10:24:16;98574.00;;;19.18;60.50
75617;BME280;64200;55.426;37.758;2023-07-24T10:29:18;98566.69;;;19.23;60.57
75617;BME280;64200;55.426;37.758;2023-07-24T10:34:19;98563.00;;;18.86;60.61
75617;BME280;64200;55.426;37.758;2023-07-24T10:39:20;98573.09;;;18.81;61.66
75617;BME280;64200;55.426;37.758;2023-07-24T10:44:30;98560.88;;;18.65;62.70
75617;BME280;64200;55.426;37.758;2023-07-24T10:49:31;98559.28;;;18.91;62.22
75617;BME280;64200;55.426;37.758;2023-07-24T10:54:32;98562.53;;;18.60;63.44
75617;BME280;64200;55.426;37.758;2023-07-24T10:59:39;98555.41;;;18.81;63.51
75617;BME280;64200;55.426;37.758;2023-07-24T11:04:40;98556.09;;;18.94;63.15
75617;BME280;64200;55.426;37.758;2023-07-24T11:09:40;98552.97;;;19.27;63.87
75617;BME280;64200;55.426;37.758;2023-07-24T11:14:52;98549.25;;;19.32;62.93
75617;BME280;64200;55.426;37.758;2023-07-24T11:20:05;98552.53;;;18.94;63.88
75617;BME280;64200;55.426;37.758;2023-07-24T11:25:06;98545.72;;;18.20;65.87
75617;BME280;64200;55.426;37.758;2023-07-24T11:30:08;98537.03;;;18.18;65.93
75617;BME280;64200;55.426;37.758;2023-07-24T11:35:09;98537.47;;;18.57;65.24
75617;BME280;64200;55.426;37.758;2023-07-24T11:40:10;98532.56;;;18.78;64.99
75617;BME280;64200;55.426;37.758;2023-07-24T11:45:14;98524.44;;;18.54;65.44
75617;BME280;64200;55.426;37.758;2023-07-24T11:50:16;98516.59;;;18.60;65.95
75617;BME280;64200;55.426;37.758;2023-07-24T11:55:19;98528.16;;;18.14;68.53
75617;BME280;64200;55.426;37.758;2023-07-24T12:00:21;98512.47;;;17.65;70.27
75617;BME280;64200;55.426;37.758;2023-07-24T12:05:22;98527.75;;;17.30;71.33
75617;BME280;64200;55.426;37.758;2023-07-24T12:10:27;98508.09;;;16.97;72.73
75617;BME280;64200;55.426;37.758;2023-07-24T12:15:28;98495.44;;;17.04;72.77
75617;BME280;64200;55.426;37.758;2023-07-24T12:20:28;98491.94;;;17.11;72.31
75617;BME280;64200;55.426;37.758;2023-07-24T12:25:30;98490.75;;;17.07;71.95
75617;BME280;64200;55.426;37.758;2023-07-24T12:30:30;98470.19;;;17.12;71.45
75617;BME280;64200;55.426;37.758;2023-07-24T12:35:31;98459.78;;;17.20;69.89
75617;BME280;64200;55.426;37.758;2023-07-24T12:40:32;98449.69;;;17.51;69.38
75617;BME280;64200;55.426;37.758;2023-07-24T12:45:32;98431.53;;;17.60;68.49
75617;BME280;64200;55.426;37.758;2023-07-24T12:50:33;98422.19;;;17.79;67.53
75617;BME280;64200;55.426;37.758;2023-07-24T12:55:34;98437.97;;;18.08;67.58
75617;BME280;64200;55.426;37.758;2023-07-24T13:00:34;98428.94;;;18.10;66.95
75617;BME280;64200;55.426;37.758;2023-07-24T13:05:35;98424.06;;;18.11;66.69
75617;BME280;64200;55.426;37.758;2023-07-24T13:10:35;98429.38;;;18.14;66.53
75617;BME280;64200;55.426;37.758;2023-07-24T13:15:36;98423.22;;;18.02;67.15
75617;BME280;64200;55.426;37.758;2023-07-24T13:20:36;98426.00;;;18.16;67.24
75617;BME280;64200;55.426;37.758;2023-07-24T13:25:37;98417.53;;;18.16;66.81
75617;BME280;64200;55.426;37.758;2023-07-24T13:30:37;98403.63;;;18.18;66.96
75617;BME280;64200;55.426;37.758;2023-07-24T13:35:39;98394.03;;;18.00;67.09
75617;BME280;64200;55.426;37.758;2023-07-24T13:40:40;98396.44;;;17.96;67.47
75617;BME280;64200;55.426;37.758;2023-07-24T13:45:40;98372.16;;;17.93;68.37
75617;BME280;64200;55.426;37.758;2023-07-24T13:50:41;98373.47;;;18.13;68.06
75617;BME280;64200;55.426;37.758;2023-07-24T13:55:41;98376.34;;;18.41;67.12
75617;BME280;64200;55.426;37.758;2023-07-24T14:00:42;98368.72;;;18.50;66.90
75617;BME280;64200;55.426;37.758;2023-07-24T14:05:43;98356.19;;;18.37;66.82
75617;BME280;64200;55.426;37.758;2023-07-24T14:10:44;98359.78;;;18.38;67.40
75617;BME280;64200;55.426;37.758;2023-07-24T14:15:44;98345.47;;;18.65;67.55
75617;BME280;64200;55.426;37.758;2023-07-24T14:20:45;98337.97;;;19.40;66.97
75617;BME280;64200;55.426;37.758;2023-07-24T14:25:47;98340.19;;;19.94;64.59
75617;BME280;64200;55.426;37.758;2023-07-24T14:30:48;98340.38;;;19.88;63.73
75617;BME280;64200;55.426;37.758;2023-07-24T14:35:48;98332.44;;;19.79;63.84
75617;BME280;64200;55.426;37.758;2023-07-24T14:40:49;98321.91;;;19.87;62.74
75617;BME280;64200;55.426;37.758;2023-07-24T14:45:50;98319.84;;;20.18;62.85
75617;BME280;64200;55.426;37.758;2023-07-24T14:50:50;98328.16;;;20.24;62.65
75617;BME280;64200;55.426;37.758;2023-07-24T14:55:51;98315.88;;;20.37;62.45
75617;BME280;64200;55.426;37.758;2023-07-24T15:00:51;98309.84;;;20.10;62.97
75617;BME280;64200;55.426;37.758;2023-07-24T15:05:52;98286.06;;;19.90;63.13
75617;BME280;64200;55.426;37.758;2023-07-24T15:10:53;98309.09;;;20.02;63.67
75617;BME280;64200;55.426;37.758;2023-07-24T15:15:53;98319.47;;;19.99;64.46
75617;BME280;64200;55.426;37.758;2023-07-24T15:20:54;98314.75;;;20.25;64.40
75617;BME280;64200;55.426;37.758;2023-07-24T15:25:55;98305.28;;;20.22;64.18
75617;BME280;64200;55.426;37.758;2023-07-24T15:30:55;98308.69;;;20.13;64.53
75617;BME280;64200;55.426;37.758;2023-07-24T15:35:56;98305.13;;;20.20;64.80
75617;BME280;64200;55.426;37.758;2023-07-24T15:40:56;98297.38;;;20.21;64.76
75617;BME280;64200;55.426;37.758;2023-07-24T15:45:57;98299.28;;;20.26;65.39
75617;BME280;64200;55.426;37.758;2023-07-24T15:50:57;98285.66;;;20.40;64.79
75617;BME280;64200;55.426;37.758;2023-07-24T15:55:58;98287.56;;;20.37;64.73
75617;BME280;64200;55.426;37.758;2023-07-24T16:00:58;98279.66;;;20.12;65.24
75617;BME280;64200;55.426;37.758;2023-07-24T16:05:59;98269.09;;;19.90;65.96
75617;BME280;64200;55.426;37.758;2023-07-24T16:11:01;98284.94;;;19.93;66.90
75617;BME280;64200;55.426;37.758;2023-07-24T16:16:03;98291.66;;;19.66;67.11
75617;BME280;64200;55.426;37.758;2023-07-24T16:21:05;98289.88;;;19.40;68.26
75617;BME280;64200;55.426;37.758;2023-07-24T16:26:05;98297.34;;;19.15;69.12
75617;BME280;64200;55.426;37.758;2023-07-24T16:31:06;98286.22;;;19.17;68.90
75617;BME280;64200;55.426;37.758;2023-07-24T16:36:06;98290.03;;;19.27;68.65
75617;BME280;64200;55.426;37.758;2023-07-24T16:41:07;98297.09;;;19.49;68.18
75617;BME280;64200;55.426;37.758;2023-07-24T16:46:07;98289.72;;;19.46;67.59
75617;BME280;64200;55.426;37.758;2023-07-24T16:51:08;98286.44;;;19.19;67.71
75617;BME280;64200;55.426;37.758;2023-07-24T16:56:09;98289.91;;;18.96;68.57
75617;BME280;64200;55.426;37.758;2023-07-24T17:01:09;98288.53;;;18.82;69.29
75617;BME280;64200;55.426;37.758;2023-07-24T17:06:10;98292.50;;;18.57;70.13
75617;BME280;64200;55.426;37.758;2023-07-24T17:11:11;98292.56;;;18.36;70.54
75617;BME280;64200;55.426;37.758;2023-07-24T17:16:11;98301.47;;;18.19;71.25
75617;BME280;64200;55.426;37.758;2023-07-24T17:21:12;98315.44;;;18.04;71.53
75617;BME280;64200;55.426;37.758;2023-07-24T17:26:12;98310.72;;;17.99;72.16
75617;BME280;64200;55.426;37.758;2023-07-24T17:31:13;98323.63;;;17.94;72.06
75617;BME280;64200;55.426;37.758;2023-07-24T17:36:13;98324.09;;;17.85;72.52
75617;BME280;64200;55.426;37.758;2023-07-24T17:41:14;98316.19;;;17.83;72.45
75617;BME280;64200;55.426;37.758;2023-07-24T17:46:14;98312.00;;;17.77;72.41
75617;BME280;64200;55.426;37.758;2023-07-24T17:51:16;98325.31;;;17.76;72.66
75617;BME280;64200;55.426;37.758;2023-07-24T17:56:17;98327.09;;;17.66;73.37
75617;BME280;64200;55.426;37.758;2023-07-24T18:01:18;98326.91;;;17.64;73.68
75617;BME280;64200;55.426;37.758;2023-07-24T18:06:21;98322.13;;;17.59;73.67
75617;BME280;64200;55.426;37.758;2023-07-24T18:11:21;98314.22;;;17.57;73.69
75617;BME280;64200;55.426;37.758;2023-07-24T18:16:22;98319.66;;;17.55;74.04
75617;BME280;64200;55.426;37.758;2023-07-24T18:21:22;98319.03;;;17.49;74.40
75617;BME280;64200;55.426;37.758;2023-07-24T18:26:24;98331.06;;;17.49;74.00
75617;BME280;64200;55.426;37.758;2023-07-24T18:31:25;98328.69;;;17.40;74.46
75617;BME280;64200;55.426;37.758;2023-07-24T18:36:26;98304.91;;;17.28;74.25
75617;BME280;64200;55.426;37.758;2023-07-24T18:41:26;98321.88;;;17.35;74.37
75617;BME280;64200;55.426;37.758;2023-07-24T18:46:27;98319.53;;;17.26;74.87
75617;BME280;64200;55.426;37.758;2023-07-24T18:51:27;98326.03;;;17.21;75.26
75617;BME280;64200;55.426;37.758;2023-07-24T18:56:28;98325.31;;;17.07;75.37
75617;BME280;64200;55.426;37.758;2023-07-24T19:01:28;98339.16;;;17.05;75.76
75617;BME280;64200;55.426;37.758;2023-07-24T19:06:29;98335.59;;;17.05;75.50
75617;BME280;64200;55.426;37.758;2023-07-24T19:11:31;98328.66;;;17.06;75.41
75617;BME280;64200;55.426;37.758;2023-07-24T19:16:32;98335.59;;;17.05;75.10
75617;BME280;64200;55.426;37.758;2023-07-24T19:21:32;98324.25;;;16.97;75.31
75617;BME280;64200;55.426;37.758;2023-07-24T19:26:33;98337.78;;;16.98;75.05
75617;BME280;64200;55.426;37.758;2023-07-24T19:31:33;98332.66;;;16.83;75.72
75617;BME280;64200;55.426;37.758;2023-07-24T19:36:34;98336.56;;;16.80;76.40
75617;BME280;64200;55.426;37.758;2023-07-24T19:41:35;98337.66;;;16.77;76.70
75617;BME280;64200;55.426;37.758;2023-07-24T19:46:35;98341.53;;;16.74;77.16
75617;BME280;64200;55.426;37.758;2023-07-24T19:51:36;98337.41;;;16.62;77.76
75617;BME280;64200;55.426;37.758;2023-07-24T19:56:36;98326.50;;;16.72;77.33
75617;BME280;64200;55.426;37.758;2023-07-24T20:01:37;98325.72;;;16.71;77.12
75617;BME280;64200;55.426;37.758;2023-07-24T20:06:37;98319.69;;;16.67;77.27
75617;BME280;64200;55.426;37.758;2023-07-24T20:11:38;98319.66;;;16.54;77.59
75617;BME280;64200;55.426;37.758;2023-07-24T20:16:38;98319.22;;;16.49;77.94
75617;BME280;64200;55.426;37.758;2023-07-24T20:21:39;98314.34;;;16.50;78.17
75617;BME280;64200;55.426;37.758;2023-07-24T20:26:41;98302.78;;;16.54;78.17
75617;BME280;64200;55.426;37.758;2023-07-24T20:31:41;98313.16;;;16.59;77.80
75617;BME280;64200;55.426;37.758;2023-07-24T20:36:42;98302.88;;;16.61;77.38
75617;BME280;64200;55.426;37.758;2023-07-24T20:41:44;98304.06;;;16.53;77.85
75617;BME280;64200;55.426;37.758;2023-07-24T20:46:44;98303.19;;;16.44;78.37
75617;BME280;64200;55.426;37.758;2023-07-24T20:51:45;98310.69;;;16.42;78.06
75617;BME280;64200;55.426;37.758;2023-07-24T20:56:45;98286.19;;;16.37;78.37
75617;BME280;64200;55.426;37.758;2023-07-24T21:01:46;98302.88;;;16.48;78.17
75617;BME280;64200;55.426;37.758;2023-07-24T21:06:47;98288.47;;;16.51;78.17
75617;BME280;64200;55.426;37.758;2023-07-24T21:11:48;98278.19;;;16.54;77.66
75617;BME280;64200;55.426;37.758;2023-07-24T21:16:49;98281.97;;;16.70;77.60
75617;BME280;64200;55.426;37.758;2023-07-24T21:21:50;98259.47;;;16.70;77.40
75617;BME280;64200;55.426;37.758;2023-07-24T21:26:50;98264.13;;;16.67;77.51
75617;BME280;64200;55.426;37.758;2023-07-24T21:31:51;98270.41;;;16.60;77.70
75617;BME280;64200;55.426;37.758;2023-07-24T21:36:51;98282.31;;;16.53;78.13
75617;BME280;64200;55.426;37.758;2023-07-24T21:41:52;98271.69;;;16.46;78.35
75617;BME280;64200;55.426;37.758;2023-07-24T21:46:52;98278.94;;;16.55;78.17
75617;BME280;64200;55.426;37.758;2023-07-24T21:51:53;98296.28;;;16.45;78.63
75617;BME280;64200;55.426;37.758;2023-07-24T21:56:55;98291.28;;;16.51;78.93
75617;BME280;64200;55.426;37.758;2023-07-24T22:01:55;98294.53;;;16.56;78.45
75617;BME280;64200;55.426;37.758;2023-07-24T22:06:56;98294.22;;;16.46;78.60
75617;BME280;64200;55.426;37.758;2023-07-24T22:11:56;98295.53;;;16.45;78.93
75617;BME280;64200;55.426;37.758;2023-07-24T22:16:57;98297.56;;;16.58;78.64
75617;BME280;64200;55.426;37.758;2023-07-24T22:21:57;98280.13;;;16.59;78.30
75617;BME280;64200;55.426;37.758;2023-07-24T22:26:58;98272.22;;;16.71;77.93
75617;BME280;64200;55.426;37.758;2023-07-24T22:31:59;98272.66;;;16.75;78.14
75617;BME280;64200;55.426;37.758;2023-07-24T22:36:59;98264.56;;;16.72;78.12
75617;BME280;64200;55.426;37.758;2023-07-24T22:42:03;98273.09;;;16.66;78.23
75617;BME280;64200;55.426;37.758;2023-07-24T22:47:04;98267.25;;;16.64;78.45
75617;BME280;64200;55.426;37.758;2023-07-24T22:52:05;98278.09;;;16.60;78.85
75617;BME280;64200;55.426;37.758;2023-07-24T22:57:06;98276.22;;;16.62;78.47
75617;BME280;64200;55.426;37.758;2023-07-24T23:02:06;98257.41;;;16.71;78.04
75617;BME280;64200;55.426;37.758;2023-07-24T23:07:07;98272.34;;;16.52;78.86
75617;BME280;64200;55.426;37.758;2023-07-24T23:12:08;98288.03;;;16.47;79.21
75617;BME280;64200;55.426;37.758;2023-07-24T23:17:08;98285.88;;;16.54;78.83
75617;BME280;64200;55.426;37.758;2023-07-24T23:22:09;98280.38;;;16.61;78.72
75617;BME280;64200;55.426;37.758;2023-07-24T23:27:09;98268.13;;;16.59;78.67
75617;BME280;64200;55.426;37.758;2023-07-24T23:32:10;98280.13;;;16.59;78.84
75617;BME280;64200;55.426;37.758;2023-07-24T23:37:10;98264.22;;;16.62;78.25
75617;BME280;64200;55.426;37.758;2023-07-24T23:42:11;98262.47;;;16.72;77.57
75617;BME280;64200;55.426;37.758;2023-07-24T23:47:11;98259.56;;;16.78;77.46
75617;BME280;64200;55.426;37.758;2023-07-24T23:52:12;98258.38;;;16.73;76.92
75617;BME280;64200;55.426;37.758;2023-07-24T23:57:13;98234.69;;;16.55;77.71
